sensor_id;sensor_type;location;lat;lon;timestamp;P1;durP1;ratioP1;P2;durP2;ratioP2
38865;SDS011;62686;48.984;8.394;2023-08-24T00:01:37;5.32;;;4.03;;
38865;SDS011;62686;48.984;8.394;2023-08-24T00:04:05;8.73;;;4.55;;
38865;SDS011;62686;48.984;8.394;2023-08-24T00:06:36;4.20;;;3.70;;
38865;SDS011;62686;48.984;8.394;2023-08-24T00:09:04;9.05;;;4.15;;
38865;SDS011;62686;48.984;8.394;2023-08-24T00:11:33;4.40;;;3.70;;
38865;SDS011;62686;48.984;8.394;2023-08-24T00:14:01;3.88;;;3.40;;
38865;SDS011;62686;48.984;8.394;2023-08-24T00:16:30;4.38;;;3.97;;
38865;SDS011;62686;48.984;8.394;2023-08-24T00:18:58;6.47;;;3.92;;
38865;SDS011;62686;48.984;8.394;2023-08-24T00:21:26;4.25;;;3.85;;
38865;SDS011;62686;48.984;8.394;2023-08-24T00:23:56;4.13;;;3.65;;
38865;SDS011;62686;48.984;8.394;2023-08-24T00:26:26;5.30;;;3.92;;
38865;SDS011;62686;48.984;8.394;2023-08-24T00:28:54;4.90;;;3.85;;
38865;SDS011;62686;48.984;8.394;2023-08-24T00:31:22;4.78;;;3.78;;
38865;SDS011;62686;48.984;8.394;2023-08-24T00:33:51;5.30;;;3.90;;
38865;SDS011;62686;48.984;8.394;2023-08-24T00:36:19;5.70;;;3.72;;
38865;SDS011;62686;48.984;8.394;2023-08-24T00:38:49;5.10;;;3.88;;
38865;SDS011;62686;48.984;8.394;2023-08-24T00:41:20;4.70;;;3.70;;
38865;SDS011;62686;48.984;8.394;2023-08-24T00:43:51;4.35;;;3.63;;
38865;SDS011;62686;48.984;8.394;2023-08-24T00:46:21;8.00;;;3.58;;
38865;SDS011;62686;48.984;8.394;2023-08-24T00:48:53;7.65;;;3.50;;
38865;SDS011;62686;48.984;8.394;2023-08-24T00:51:23;5.20;;;3.35;;
38865;SDS011;62686;48.984;8.394;2023-08-24T00:53:52;6.28;;;3.55;;
38865;SDS011;62686;48.984;8.394;2023-08-24T00:56:22;4.68;;;3.33;;
38865;SDS011;62686;48.984;8.394;2023-08-24T00:58:52;4.45;;;3.15;;
38865;SDS011;62686;48.984;8.394;2023-08-24T01:01:22;3.63;;;3.25;;
38865;SDS011;62686;48.984;8.394;2023-08-24T01:03:51;5.10;;;3.28;;
38865;SDS011;62686;48.984;8.394;2023-08-24T01:06:19;3.55;;;3.20;;
38865;SDS011;62686;48.984;8.394;2023-08-24T01:08:48;8.20;;;3.60;;
38865;SDS011;62686;48.984;8.394;2023-08-24T01:11:19;4.90;;;3.20;;
38865;SDS011;62686;48.984;8.394;2023-08-24T01:13:59;4.95;;;3.47;;
38865;SDS011;62686;48.984;8.394;2023-08-24T01:16:34;5.97;;;3.78;;
38865;SDS011;62686;48.984;8.394;2023-08-24T01:19:07;5.18;;;3.72;;
38865;SDS011;62686;48.984;8.394;2023-08-24T01:21:44;4.75;;;3.92;;
38865;SDS011;62686;48.984;8.394;2023-08-24T01:24:14;7.13;;;4.00;;
38865;SDS011;62686;48.984;8.394;2023-08-24T01:26:50;5.53;;;3.60;;
38865;SDS011;62686;48.984;8.394;2023-08-24T01:29:21;10.70;;;4.03;;
38865;SDS011;62686;48.984;8.394;2023-08-24T01:31:49;4.65;;;3.97;;
38865;SDS011;62686;48.984;8.394;2023-08-24T01:34:18;6.13;;;3.95;;
38865;SDS011;62686;48.984;8.394;2023-08-24T01:36:46;5.03;;;3.90;;
38865;SDS011;62686;48.984;8.394;2023-08-24T01:39:17;9.68;;;4.05;;
38865;SDS011;62686;48.984;8.394;2023-08-24T01:41:53;6.85;;;4.15;;
38865;SDS011;62686;48.984;8.394;2023-08-24T01:44:28;6.03;;;4.13;;
38865;SDS011;62686;48.984;8.394;2023-08-24T01:46:59;4.32;;;3.70;;
38865;SDS011;62686;48.984;8.394;2023-08-24T01:49:29;4.68;;;3.70;;
38865;SDS011;62686;48.984;8.394;2023-08-24T01:51:59;8.55;;;3.70;;
38865;SDS011;62686;48.984;8.394;2023-08-24T01:54:28;6.20;;;3.90;;
38865;SDS011;62686;48.984;8.394;2023-08-24T01:56:59;3.90;;;3.50;;
38865;SDS011;62686;48.984;8.394;2023-08-24T01:59:27;4.97;;;3.85;;
38865;SDS011;62686;48.984;8.394;2023-08-24T02:01:56;7.85;;;3.80;;
38865;SDS011;62686;48.984;8.394;2023-08-24T02:04:24;6.00;;;4.35;;
38865;SDS011;62686;48.984;8.394;2023-08-24T02:06:52;4.43;;;3.50;;
38865;SDS011;62686;48.984;8.394;2023-08-24T02:09:20;5.32;;;3.65;;
38865;SDS011;62686;48.984;8.394;2023-08-24T02:11:48;7.80;;;3.90;;
38865;SDS011;62686;48.984;8.394;2023-08-24T02:14:18;4.65;;;4.05;;
38865;SDS011;62686;48.984;8.394;2023-08-24T02:16:46;4.88;;;4.03;;
38865;SDS011;62686;48.984;8.394;2023-08-24T02:19:15;5.95;;;3.45;;
38865;SDS011;62686;48.984;8.394;2023-08-24T02:21:43;7.40;;;3.72;;
38865;SDS011;62686;48.984;8.394;2023-08-24T02:24:12;4.20;;;3.63;;
38865;SDS011;62686;48.984;8.394;2023-08-24T02:26:40;5.75;;;3.47;;
38865;SDS011;62686;48.984;8.394;2023-08-24T02:29:08;8.02;;;3.70;;
38865;SDS011;62686;48.984;8.394;2023-08-24T02:31:38;4.22;;;3.42;;
38865;SDS011;62686;48.984;8.394;2023-08-24T02:34:07;5.75;;;3.35;;
38865;SDS011;62686;48.984;8.394;2023-08-24T02:36:35;8.18;;;3.88;;
38865;SDS011;62686;48.984;8.394;2023-08-24T02:39:03;6.47;;;3.53;;
38865;SDS011;62686;48.984;8.394;2023-08-24T02:41:32;4.28;;;3.22;;
38865;SDS011;62686;48.984;8.394;2023-08-24T02:44:01;4.18;;;3.55;;
38865;SDS011;62686;48.984;8.394;2023-08-24T02:46:30;4.63;;;3.70;;
38865;SDS011;62686;48.984;8.394;2023-08-24T02:49:00;3.97;;;3.58;;
38865;SDS011;62686;48.984;8.394;2023-08-24T02:51:28;6.32;;;3.35;;
38865;SDS011;62686;48.984;8.394;2023-08-24T02:53:58;8.10;;;4.22;;
38865;SDS011;62686;48.984;8.394;2023-08-24T02:56:26;4.65;;;3.83;;
38865;SDS011;62686;48.984;8.394;2023-08-24T02:58:54;4.40;;;3.60;;
38865;SDS011;62686;48.984;8.394;2023-08-24T03:01:23;4.63;;;3.40;;
38865;SDS011;62686;48.984;8.394;2023-08-24T03:03:53;6.65;;;3.83;;
38865;SDS011;62686;48.984;8.394;2023-08-24T03:06:22;4.97;;;3.58;;
38865;SDS011;62686;48.984;8.394;2023-08-24T03:08:51;5.97;;;3.90;;
38865;SDS011;62686;48.984;8.394;2023-08-24T03:11:19;8.07;;;3.55;;
38865;SDS011;62686;48.984;8.394;2023-08-24T03:13:47;5.03;;;3.80;;
38865;SDS011;62686;48.984;8.394;2023-08-24T03:16:16;6.22;;;3.95;;
38865;SDS011;62686;48.984;8.394;2023-08-24T03:18:44;6.40;;;3.65;;
38865;SDS011;62686;48.984;8.394;2023-08-24T03:21:13;6.25;;;4.00;;
38865;SDS011;62686;48.984;8.394;2023-08-24T03:23:42;5.55;;;4.00;;
38865;SDS011;62686;48.984;8.394;2023-08-24T03:26:10;4.20;;;3.78;;
38865;SDS011;62686;48.984;8.394;2023-08-24T03:28:39;6.85;;;3.75;;
38865;SDS011;62686;48.984;8.394;2023-08-24T03:31:07;5.35;;;3.63;;
38865;SDS011;62686;48.984;8.394;2023-08-24T03:33:35;5.03;;;3.65;;
38865;SDS011;62686;48.984;8.394;2023-08-24T03:36:03;9.40;;;4.15;;
38865;SDS011;62686;48.984;8.394;2023-08-24T03:38:34;5.28;;;3.72;;
38865;SDS011;62686;48.984;8.394;2023-08-24T03:41:04;5.13;;;4.22;;
38865;SDS011;62686;48.984;8.394;2023-08-24T03:43:34;9.93;;;3.90;;
38865;SDS011;62686;48.984;8.394;2023-08-24T03:46:03;6.72;;;4.32;;
38865;SDS011;62686;48.984;8.394;2023-08-24T03:48:32;5.78;;;4.20;;
38865;SDS011;62686;48.984;8.394;2023-08-24T03:51:00;9.70;;;4.50;;
38865;SDS011;62686;48.984;8.394;2023-08-24T03:53:29;6.57;;;4.07;;
38865;SDS011;62686;48.984;8.394;2023-08-24T03:55:57;6.00;;;4.20;;
38865;SDS011;62686;48.984;8.394;2023-08-24T03:58:27;4.82;;;3.80;;
38865;SDS011;62686;48.984;8.394;2023-08-24T04:00:56;7.78;;;4.13;;
38865;SDS011;62686;48.984;8.394;2023-08-24T04:03:24;4.47;;;3.92;;
38865;SDS011;62686;48.984;8.394;2023-08-24T04:05:53;8.63;;;4.55;;
38865;SDS011;62686;48.984;8.394;2023-08-24T04:08:21;5.65;;;4.43;;
38865;SDS011;62686;48.984;8.394;2023-08-24T04:10:50;6.32;;;4.45;;
38865;SDS011;62686;48.984;8.394;2023-08-24T04:13:18;8.80;;;4.53;;
38865;SDS011;62686;48.984;8.394;2023-08-24T04:15:48;5.55;;;4.40;;
38865;SDS011;62686;48.984;8.394;2023-08-24T04:18:16;6.10;;;4.65;;
38865;SDS011;62686;48.984;8.394;2023-08-24T04:20:44;9.07;;;4.15;;
38865;SDS011;62686;48.984;8.394;2023-08-24T04:23:13;6.13;;;4.43;;
38865;SDS011;62686;48.984;8.394;2023-08-24T04:25:42;6.13;;;3.97;;
38865;SDS011;62686;48.984;8.394;2023-08-24T04:28:11;4.35;;;3.80;;
38865;SDS011;62686;48.984;8.394;2023-08-24T04:30:39;7.93;;;3.85;;
38865;SDS011;62686;48.984;8.394;2023-08-24T04:33:08;7.68;;;4.38;;
38865;SDS011;62686;48.984;8.394;2023-08-24T04:35:37;7.75;;;4.20;;
38865;SDS011;62686;48.984;8.394;2023-08-24T04:38:05;7.13;;;3.85;;
38865;SDS011;62686;48.984;8.394;2023-08-24T04:40:44;7.85;;;3.80;;
38865;SDS011;62686;48.984;8.394;2023-08-24T04:43:14;7.70;;;4.15;;
38865;SDS011;62686;48.984;8.394;2023-08-24T04:45:42;5.78;;;3.33;;
38865;SDS011;62686;48.984;8.394;2023-08-24T04:48:12;4.95;;;3.80;;
38865;SDS011;62686;48.984;8.394;2023-08-24T04:50:41;6.13;;;3.70;;
38865;SDS011;62686;48.984;8.394;2023-08-24T04:53:12;7.78;;;4.50;;
38865;SDS011;62686;48.984;8.394;2023-08-24T04:55:42;4.97;;;3.80;;
38865;SDS011;62686;48.984;8.394;2023-08-24T04:58:10;5.85;;;4.10;;
38865;SDS011;62686;48.984;8.394;2023-08-24T05:00:40;5.30;;;3.90;;
38865;SDS011;62686;48.984;8.394;2023-08-24T05:03:08;8.82;;;3.95;;
38865;SDS011;62686;48.984;8.394;2023-08-24T05:05:38;6.20;;;4.22;;
38865;SDS011;62686;48.984;8.394;2023-08-24T05:08:06;9.00;;;4.65;;
38865;SDS011;62686;48.984;8.394;2023-08-24T05:10:38;4.70;;;3.78;;
38865;SDS011;62686;48.984;8.394;2023-08-24T05:13:10;5.53;;;3.67;;
38865;SDS011;62686;48.984;8.394;2023-08-24T05:15:38;4.50;;;3.80;;
38865;SDS011;62686;48.984;8.394;2023-08-24T05:18:17;8.35;;;3.88;;
38865;SDS011;62686;48.984;8.394;2023-08-24T05:20:47;5.00;;;3.63;;
38865;SDS011;62686;48.984;8.394;2023-08-24T05:23:20;6.55;;;3.17;;
38865;SDS011;62686;48.984;8.394;2023-08-24T05:25:50;4.53;;;3.22;;
38865;SDS011;62686;48.984;8.394;2023-08-24T05:28:18;5.30;;;3.42;;
38865;SDS011;62686;48.984;8.394;2023-08-24T05:30:49;4.78;;;3.30;;
38865;SDS011;62686;48.984;8.394;2023-08-24T05:33:21;5.53;;;3.40;;
38865;SDS011;62686;48.984;8.394;2023-08-24T05:35:57;6.07;;;3.20;;
38865;SDS011;62686;48.984;8.394;2023-08-24T05:38:30;7.80;;;3.17;;
38865;SDS011;62686;48.984;8.394;2023-08-24T05:40:59;7.70;;;3.40;;
38865;SDS011;62686;48.984;8.394;2023-08-24T05:43:33;6.97;;;3.47;;
38865;SDS011;62686;48.984;8.394;2023-08-24T05:46:07;6.60;;;3.20;;
38865;SDS011;62686;48.984;8.394;2023-08-24T05:48:38;6.72;;;3.72;;
38865;SDS011;62686;48.984;8.394;2023-08-24T05:51:08;5.97;;;3.08;;
38865;SDS011;62686;48.984;8.394;2023-08-24T05:53:43;6.80;;;3.42;;
38865;SDS011;62686;48.984;8.394;2023-08-24T05:56:17;5.80;;;3.60;;
38865;SDS011;62686;48.984;8.394;2023-08-24T05:58:53;5.20;;;3.20;;
38865;SDS011;62686;48.984;8.394;2023-08-24T06:01:21;5.75;;;3.85;;
38865;SDS011;62686;48.984;8.394;2023-08-24T06:03:50;6.05;;;3.63;;
38865;SDS011;62686;48.984;8.394;2023-08-24T06:06:22;6.80;;;3.42;;
38865;SDS011;62686;48.984;8.394;2023-08-24T06:08:51;7.35;;;3.40;;
38865;SDS011;62686;48.984;8.394;2023-08-24T06:11:20;5.30;;;3.10;;
38865;SDS011;62686;48.984;8.394;2023-08-24T06:13:54;3.90;;;3.05;;
38865;SDS011;62686;48.984;8.394;2023-08-24T06:16:23;5.00;;;3.30;;
38865;SDS011;62686;48.984;8.394;2023-08-24T06:18:51;5.68;;;3.20;;
38865;SDS011;62686;48.984;8.394;2023-08-24T06:21:21;4.15;;;3.30;;
38865;SDS011;62686;48.984;8.394;2023-08-24T06:23:49;6.15;;;3.08;;
38865;SDS011;62686;48.984;8.394;2023-08-24T06:26:17;7.32;;;3.20;;
38865;SDS011;62686;48.984;8.394;2023-08-24T06:28:45;7.57;;;2.97;;
38865;SDS011;62686;48.984;8.394;2023-08-24T06:31:14;6.07;;;3.10;;
38865;SDS011;62686;48.984;8.394;2023-08-24T06:33:43;3.72;;;2.80;;
38865;SDS011;62686;48.984;8.394;2023-08-24T06:36:11;4.32;;;2.60;;
38865;SDS011;62686;48.984;8.394;2023-08-24T06:38:41;2.88;;;2.28;;
38865;SDS011;62686;48.984;8.394;2023-08-24T06:41:11;3.17;;;2.60;;
38865;SDS011;62686;48.984;8.394;2023-08-24T06:43:40;3.15;;;2.80;;
38865;SDS011;62686;48.984;8.394;2023-08-24T06:46:08;5.53;;;2.38;;
38865;SDS011;62686;48.984;8.394;2023-08-24T06:48:37;4.55;;;2.47;;
38865;SDS011;62686;48.984;8.394;2023-08-24T06:51:05;4.00;;;2.42;;
38865;SDS011;62686;48.984;8.394;2023-08-24T06:53:35;5.93;;;2.50;;
38865;SDS011;62686;48.984;8.394;2023-08-24T06:56:04;8.45;;;2.60;;
38865;SDS011;62686;48.984;8.394;2023-08-24T06:58:33;2.97;;;2.10;;
38865;SDS011;62686;48.984;8.394;2023-08-24T07:01:01;3.90;;;2.30;;
38865;SDS011;62686;48.984;8.394;2023-08-24T07:03:32;4.28;;;2.35;;
38865;SDS011;62686;48.984;8.394;2023-08-24T07:06:00;4.70;;;2.38;;
38865;SDS011;62686;48.984;8.394;2023-08-24T07:08:28;4.90;;;2.30;;
38865;SDS011;62686;48.984;8.394;2023-08-24T07:10:56;5.72;;;1.90;;
38865;SDS011;62686;48.984;8.394;2023-08-24T07:13:26;4.72;;;1.98;;
38865;SDS011;62686;48.984;8.394;2023-08-24T07:15:55;6.30;;;1.95;;
38865;SDS011;62686;48.984;8.394;2023-08-24T07:18:23;6.05;;;2.13;;
38865;SDS011;62686;48.984;8.394;2023-08-24T07:20:52;4.40;;;2.03;;
38865;SDS011;62686;48.984;8.394;2023-08-24T07:23:21;2.45;;;1.65;;
38865;SDS011;62686;48.984;8.394;2023-08-24T07:25:50;4.28;;;1.80;;
38865;SDS011;62686;48.984;8.394;2023-08-24T07:28:18;3.20;;;1.50;;
38865;SDS011;62686;48.984;8.394;2023-08-24T07:30:48;2.60;;;1.70;;
38865;SDS011;62686;48.984;8.394;2023-08-24T07:33:18;4.13;;;1.70;;
38865;SDS011;62686;48.984;8.394;2023-08-24T07:35:49;3.67;;;1.67;;
38865;SDS011;62686;48.984;8.394;2023-08-24T07:38:17;3.83;;;1.85;;
38865;SDS011;62686;48.984;8.394;2023-08-24T07:40:46;2.60;;;1.35;;
38865;SDS011;62686;48.984;8.394;2023-08-24T07:43:15;5.50;;;1.80;;
38865;SDS011;62686;48.984;8.394;2023-08-24T07:45:43;3.65;;;2.38;;
38865;SDS011;62686;48.984;8.394;2023-08-24T07:48:13;5.47;;;1.98;;
38865;SDS011;62686;48.984;8.394;2023-08-24T07:50:41;6.13;;;1.42;;
38865;SDS011;62686;48.984;8.394;2023-08-24T07:53:12;2.78;;;1.50;;
38865;SDS011;62686;48.984;8.394;2023-08-24T07:55:40;3.00;;;1.73;;
38865;SDS011;62686;48.984;8.394;2023-08-24T07:58:10;3.33;;;1.63;;
38865;SDS011;62686;48.984;8.394;2023-08-24T08:00:38;1.85;;;1.55;;
38865;SDS011;62686;48.984;8.394;2023-08-24T08:03:07;13.43;;;2.05;;
38865;SDS011;62686;48.984;8.394;2023-08-24T08:05:37;3.05;;;1.60;;
38865;SDS011;62686;48.984;8.394;2023-08-24T08:08:05;2.28;;;1.77;;
38865;SDS011;62686;48.984;8.394;2023-08-24T08:10:33;3.65;;;1.48;;
38865;SDS011;62686;48.984;8.394;2023-08-24T08:13:03;2.97;;;1.75;;
38865;SDS011;62686;48.984;8.394;2023-08-24T08:15:31;3.55;;;1.92;;
38865;SDS011;62686;48.984;8.394;2023-08-24T08:17:59;5.15;;;1.83;;
38865;SDS011;62686;48.984;8.394;2023-08-24T08:20:27;6.03;;;1.80;;
38865;SDS011;62686;48.984;8.394;2023-08-24T08:22:57;4.22;;;1.65;;
38865;SDS011;62686;48.984;8.394;2023-08-24T08:25:26;5.93;;;1.75;;
38865;SDS011;62686;48.984;8.394;2023-08-24T08:27:54;3.63;;;1.70;;
38865;SDS011;62686;48.984;8.394;2023-08-24T08:30:22;3.20;;;1.50;;
38865;SDS011;62686;48.984;8.394;2023-08-24T08:32:51;2.65;;;1.50;;
38865;SDS011;62686;48.984;8.394;2023-08-24T08:35:21;2.13;;;1.73;;
38865;SDS011;62686;48.984;8.394;2023-08-24T08:37:50;6.20;;;1.70;;
38865;SDS011;62686;48.984;8.394;2023-08-24T08:40:21;2.78;;;1.60;;
38865;SDS011;62686;48.984;8.394;2023-08-24T08:42:55;4.25;;;1.88;;
38865;SDS011;62686;48.984;8.394;2023-08-24T08:45:25;5.07;;;1.60;;
38865;SDS011;62686;48.984;8.394;2023-08-24T08:47:55;3.53;;;1.77;;
38865;SDS011;62686;48.984;8.394;2023-08-24T08:50:26;6.88;;;1.73;;
38865;SDS011;62686;48.984;8.394;2023-08-24T08:52:57;2.00;;;1.52;;
38865;SDS011;62686;48.984;8.394;2023-08-24T08:55:27;2.83;;;1.70;;
38865;SDS011;62686;48.984;8.394;2023-08-24T08:57:58;3.63;;;1.67;;
38865;SDS011;62686;48.984;8.394;2023-08-24T09:00:28;5.88;;;2.10;;
38865;SDS011;62686;48.984;8.394;2023-08-24T09:02:57;5.18;;;2.00;;
38865;SDS011;62686;48.984;8.394;2023-08-24T09:05:26;4.28;;;1.85;;
38865;SDS011;62686;48.984;8.394;2023-08-24T09:07:54;2.55;;;1.52;;
38865;SDS011;62686;48.984;8.394;2023-08-24T09:10:27;5.20;;;1.90;;
38865;SDS011;62686;48.984;8.394;2023-08-24T09:12:55;5.82;;;1.80;;
38865;SDS011;62686;48.984;8.394;2023-08-24T09:15:24;3.05;;;1.67;;
38865;SDS011;62686;48.984;8.394;2023-08-24T09:17:54;2.80;;;1.75;;
38865;SDS011;62686;48.984;8.394;2023-08-24T09:20:23;3.88;;;1.77;;
38865;SDS011;62686;48.984;8.394;2023-08-24T09:22:56;2.22;;;1.50;;
38865;SDS011;62686;48.984;8.394;2023-08-24T09:25:25;2.90;;;2.20;;
38865;SDS011;62686;48.984;8.394;2023-08-24T09:27:58;4.53;;;1.88;;
38865;SDS011;62686;48.984;8.394;2023-08-24T09:30:29;7.60;;;2.20;;
38865;SDS011;62686;48.984;8.394;2023-08-24T09:33:02;4.18;;;2.08;;
38865;SDS011;62686;48.984;8.394;2023-08-24T09:35:35;5.82;;;1.88;;
38865;SDS011;62686;48.984;8.394;2023-08-24T09:38:15;5.22;;;1.92;;
38865;SDS011;62686;48.984;8.394;2023-08-24T09:40:46;9.05;;;2.28;;
38865;SDS011;62686;48.984;8.394;2023-08-24T09:43:20;3.17;;;2.25;;
38865;SDS011;62686;48.984;8.394;2023-08-24T09:45:50;5.20;;;2.20;;
38865;SDS011;62686;48.984;8.394;2023-08-24T09:48:20;3.97;;;2.00;;
38865;SDS011;62686;48.984;8.394;2023-08-24T09:50:50;4.38;;;2.33;;
38865;SDS011;62686;48.984;8.394;2023-08-24T09:53:19;3.13;;;1.90;;
38865;SDS011;62686;48.984;8.394;2023-08-24T09:55:53;3.92;;;2.50;;
38865;SDS011;62686;48.984;8.394;2023-08-24T09:58:24;3.05;;;2.40;;
38865;SDS011;62686;48.984;8.394;2023-08-24T10:00:54;5.38;;;3.03;;
38865;SDS011;62686;48.984;8.394;2023-08-24T10:03:24;2.75;;;1.92;;
38865;SDS011;62686;48.984;8.394;2023-08-24T10:05:54;7.10;;;2.30;;
38865;SDS011;62686;48.984;8.394;2023-08-24T10:08:27;4.30;;;2.03;;
38865;SDS011;62686;48.984;8.394;2023-08-24T10:10:59;3.42;;;2.08;;
38865;SDS011;62686;48.984;8.394;2023-08-24T10:13:35;6.40;;;2.70;;
38865;SDS011;62686;48.984;8.394;2023-08-24T10:16:09;4.43;;;2.40;;
38865;SDS011;62686;48.984;8.394;2023-08-24T10:18:42;5.93;;;2.40;;
38865;SDS011;62686;48.984;8.394;2023-08-24T10:21:11;9.57;;;2.53;;
38865;SDS011;62686;48.984;8.394;2023-08-24T10:23:40;4.68;;;2.40;;
38865;SDS011;62686;48.984;8.394;2023-08-24T10:26:13;10.80;;;2.65;;
38865;SDS011;62686;48.984;8.394;2023-08-24T10:28:46;6.03;;;2.47;;
38865;SDS011;62686;48.984;8.394;2023-08-24T10:31:17;6.20;;;2.40;;
38865;SDS011;62686;48.984;8.394;2023-08-24T10:33:47;7.60;;;2.88;;
38865;SDS011;62686;48.984;8.394;2023-08-24T10:36:16;6.28;;;2.83;;
38865;SDS011;62686;48.984;8.394;2023-08-24T10:38:45;6.43;;;2.47;;
38865;SDS011;62686;48.984;8.394;2023-08-24T10:41:14;8.02;;;2.80;;
38865;SDS011;62686;48.984;8.394;2023-08-24T10:43:48;3.65;;;2.50;;
38865;SDS011;62686;48.984;8.394;2023-08-24T10:46:17;3.92;;;2.40;;
38865;SDS011;62686;48.984;8.394;2023-08-24T10:48:56;6.35;;;2.97;;
38865;SDS011;62686;48.984;8.394;2023-08-24T10:51:24;7.97;;;2.53;;
38865;SDS011;62686;48.984;8.394;2023-08-24T10:53:55;4.18;;;2.50;;
38865;SDS011;62686;48.984;8.394;2023-08-24T10:56:29;5.25;;;2.20;;
38865;SDS011;62686;48.984;8.394;2023-08-24T10:59:11;3.03;;;2.40;;
38865;SDS011;62686;48.984;8.394;2023-08-24T11:01:41;4.63;;;2.30;;
38865;SDS011;62686;48.984;8.394;2023-08-24T11:04:11;6.25;;;2.50;;
38865;SDS011;62686;48.984;8.394;2023-08-24T11:06:52;3.80;;;2.33;;
38865;SDS011;62686;48.984;8.394;2023-08-24T11:09:22;4.80;;;2.50;;
38865;SDS011;62686;48.984;8.394;2023-08-24T11:11:55;4.32;;;2.30;;
38865;SDS011;62686;48.984;8.394;2023-08-24T11:14:26;5.47;;;2.38;;
38865;SDS011;62686;48.984;8.394;2023-08-24T11:16:57;4.78;;;2.47;;
38865;SDS011;62686;48.984;8.394;2023-08-24T11:19:27;4.22;;;2.58;;
38865;SDS011;62686;48.984;8.394;2023-08-24T11:21:59;6.13;;;2.53;;
38865;SDS011;62686;48.984;8.394;2023-08-24T11:24:30;6.78;;;2.30;;
38865;SDS011;62686;48.984;8.394;2023-08-24T11:27:00;2.47;;;2.25;;
38865;SDS011;62686;48.984;8.394;2023-08-24T11:29:32;8.38;;;2.58;;
38865;SDS011;62686;48.984;8.394;2023-08-24T11:32:00;7.18;;;2.38;;
38865;SDS011;62686;48.984;8.394;2023-08-24T11:34:29;4.75;;;2.70;;
38865;SDS011;62686;48.984;8.394;2023-08-24T11:36:57;5.95;;;2.47;;
38865;SDS011;62686;48.984;8.394;2023-08-24T11:39:25;3.92;;;2.42;;
38865;SDS011;62686;48.984;8.394;2023-08-24T11:41:58;4.63;;;2.70;;
38865;SDS011;62686;48.984;8.394;2023-08-24T11:44:27;4.70;;;2.58;;
38865;SDS011;62686;48.984;8.394;2023-08-24T11:46:57;4.10;;;2.10;;
38865;SDS011;62686;48.984;8.394;2023-08-24T11:49:28;6.72;;;2.30;;
38865;SDS011;62686;48.984;8.394;2023-08-24T11:51:56;5.50;;;2.28;;
38865;SDS011;62686;48.984;8.394;2023-08-24T11:54:25;4.07;;;2.38;;
38865;SDS011;62686;48.984;8.394;2023-08-24T11:56:53;8.80;;;2.50;;
38865;SDS011;62686;48.984;8.394;2023-08-24T11:59:22;8.27;;;2.45;;
38865;SDS011;62686;48.984;8.394;2023-08-24T12:01:50;5.78;;;2.50;;
38865;SDS011;62686;48.984;8.394;2023-08-24T12:04:22;6.90;;;2.50;;
38865;SDS011;62686;48.984;8.394;2023-08-24T12:06:52;4.07;;;2.45;;
38865;SDS011;62686;48.984;8.394;2023-08-24T12:09:21;6.80;;;2.70;;
38865;SDS011;62686;48.984;8.394;2023-08-24T12:11:54;4.40;;;2.58;;
38865;SDS011;62686;48.984;8.394;2023-08-24T12:14:24;4.75;;;2.40;;
38865;SDS011;62686;48.984;8.394;2023-08-24T12:16:55;7.78;;;2.42;;
38865;SDS011;62686;48.984;8.394;2023-08-24T12:19:24;3.15;;;2.45;;
38865;SDS011;62686;48.984;8.394;2023-08-24T12:21:52;7.32;;;2.60;;
38865;SDS011;62686;48.984;8.394;2023-08-24T12:24:21;4.15;;;2.20;;
38865;SDS011;62686;48.984;8.394;2023-08-24T12:26:55;9.55;;;2.53;;
38865;SDS011;62686;48.984;8.394;2023-08-24T12:29:24;6.68;;;2.40;;
38865;SDS011;62686;48.984;8.394;2023-08-24T12:31:56;6.20;;;2.50;;
38865;SDS011;62686;48.984;8.394;2023-08-24T12:34:28;4.65;;;2.40;;
38865;SDS011;62686;48.984;8.394;2023-08-24T12:36:56;6.55;;;2.70;;
38865;SDS011;62686;48.984;8.394;2023-08-24T12:39:24;4.07;;;2.60;;
38865;SDS011;62686;48.984;8.394;2023-08-24T12:41:53;4.75;;;2.50;;
38865;SDS011;62686;48.984;8.394;2023-08-24T12:44:21;3.22;;;2.30;;
38865;SDS011;62686;48.984;8.394;2023-08-24T12:46:50;6.80;;;2.60;;
38865;SDS011;62686;48.984;8.394;2023-08-24T12:49:19;7.60;;;2.50;;
38865;SDS011;62686;48.984;8.394;2023-08-24T12:51:48;5.43;;;2.20;;
38865;SDS011;62686;48.984;8.394;2023-08-24T12:54:17;4.53;;;2.42;;
38865;SDS011;62686;48.984;8.394;2023-08-24T12:56:45;5.38;;;2.58;;
38865;SDS011;62686;48.984;8.394;2023-08-24T12:59:14;6.07;;;2.80;;
38865;SDS011;62686;48.984;8.394;2023-08-24T13:01:42;3.45;;;2.13;;
38865;SDS011;62686;48.984;8.394;2023-08-24T13:04:10;5.63;;;2.28;;
38865;SDS011;62686;48.984;8.394;2023-08-24T13:06:39;4.30;;;2.22;;
38865;SDS011;62686;48.984;8.394;2023-08-24T13:09:09;3.65;;;1.80;;
38865;SDS011;62686;48.984;8.394;2023-08-24T13:11:38;6.18;;;2.33;;
38865;SDS011;62686;48.984;8.394;2023-08-24T13:14:06;5.10;;;2.55;;
38865;SDS011;62686;48.984;8.394;2023-08-24T13:16:37;4.55;;;2.35;;
38865;SDS011;62686;48.984;8.394;2023-08-24T13:19:05;5.22;;;2.35;;
38865;SDS011;62686;48.984;8.394;2023-08-24T13:21:34;2.22;;;2.00;;
38865;SDS011;62686;48.984;8.394;2023-08-24T13:24:04;5.70;;;2.70;;
38865;SDS011;62686;48.984;8.394;2023-08-24T13:26:33;3.92;;;2.60;;
38865;SDS011;62686;48.984;8.394;2023-08-24T13:29:01;5.35;;;2.22;;
38865;SDS011;62686;48.984;8.394;2023-08-24T13:31:30;3.88;;;2.13;;
38865;SDS011;62686;48.984;8.394;2023-08-24T13:33:59;7.97;;;2.55;;
38865;SDS011;62686;48.984;8.394;2023-08-24T13:36:28;8.90;;;2.47;;
38865;SDS011;62686;48.984;8.394;2023-08-24T13:38:56;3.92;;;2.47;;
38865;SDS011;62686;48.984;8.394;2023-08-24T13:41:24;4.43;;;2.38;;
38865;SDS011;62686;48.984;8.394;2023-08-24T13:43:54;5.93;;;2.72;;
38865;SDS011;62686;48.984;8.394;2023-08-24T13:46:22;5.97;;;2.67;;
38865;SDS011;62686;48.984;8.394;2023-08-24T13:48:51;3.78;;;2.60;;
38865;SDS011;62686;48.984;8.394;2023-08-24T13:51:19;3.67;;;2.75;;
38865;SDS011;62686;48.984;8.394;2023-08-24T13:53:47;6.78;;;2.85;;
38865;SDS011;62686;48.984;8.394;2023-08-24T13:56:16;4.40;;;2.85;;
38865;SDS011;62686;48.984;8.394;2023-08-24T13:58:44;4.32;;;2.65;;
38865;SDS011;62686;48.984;8.394;2023-08-24T14:01:14;5.25;;;2.65;;
38865;SDS011;62686;48.984;8.394;2023-08-24T14:03:43;10.68;;;2.88;;
38865;SDS011;62686;48.984;8.394;2023-08-24T14:06:11;6.13;;;3.17;;
38865;SDS011;62686;48.984;8.394;2023-08-24T14:08:40;4.15;;;3.15;;
38865;SDS011;62686;48.984;8.394;2023-08-24T14:11:08;9.82;;;3.60;;
38865;SDS011;62686;48.984;8.394;2023-08-24T14:13:40;8.27;;;3.13;;
38865;SDS011;62686;48.984;8.394;2023-08-24T14:16:08;6.93;;;3.17;;
38865;SDS011;62686;48.984;8.394;2023-08-24T14:18:38;23.15;;;5.93;;
38865;SDS011;62686;48.984;8.394;2023-08-24T14:21:06;15.93;;;5.90;;
38865;SDS011;62686;48.984;8.394;2023-08-24T14:23:37;11.95;;;5.05;;
38865;SDS011;62686;48.984;8.394;2023-08-24T14:26:06;8.50;;;5.57;;
38865;SDS011;62686;48.984;8.394;2023-08-24T14:28:47;10.50;;;6.20;;
38865;SDS011;62686;48.984;8.394;2023-08-24T14:31:16;14.20;;;6.78;;
38865;SDS011;62686;48.984;8.394;2023-08-24T14:33:46;10.93;;;6.85;;
38865;SDS011;62686;48.984;8.394;2023-08-24T14:36:14;10.05;;;7.03;;
38865;SDS011;62686;48.984;8.394;2023-08-24T14:38:43;8.20;;;7.40;;
38865;SDS011;62686;48.984;8.394;2023-08-24T14:41:12;9.00;;;7.80;;
38865;SDS011;62686;48.984;8.394;2023-08-24T14:43:41;9.65;;;7.95;;
38865;SDS011;62686;48.984;8.394;2023-08-24T14:46:10;12.45;;;7.45;;
38865;SDS011;62686;48.984;8.394;2023-08-24T14:48:38;10.80;;;7.60;;
38865;SDS011;62686;48.984;8.394;2023-08-24T14:51:08;10.38;;;8.02;;
38865;SDS011;62686;48.984;8.394;2023-08-24T14:53:38;8.45;;;7.10;;
38865;SDS011;62686;48.984;8.394;2023-08-24T14:56:08;11.05;;;6.93;;
38865;SDS011;62686;48.984;8.394;2023-08-24T14:58:37;9.55;;;6.65;;
38865;SDS011;62686;48.984;8.394;2023-08-24T15:01:06;9.15;;;7.05;;
38865;SDS011;62686;48.984;8.394;2023-08-24T15:03:35;10.60;;;6.10;;